createdAt,value
2023-01-02T00:01:05.377Z,14.94
2023-01-02T00:03:07.149Z,14.97
2023-01-02T00:05:13.028Z,14.95
2023-01-02T00:07:14.575Z,14.94
2023-01-02T00:09:18.273Z,14.97
2023-01-02T00:11:19.978Z,14.96
2023-01-02T00:13:21.495Z,14.95
2023-01-02T00:15:23.104Z,14.95
2023-01-02T00:17:24.769Z,14.93
2023-01-02T00:19:26.479Z,14.95
2023-01-02T00:21:28.371Z,14.95
2023-01-02T00:23:33.344Z,14.94
2023-01-02T00:25:35.380Z,14.93
2023-01-02T00:27:37.033Z,14.94
2023-01-02T00:29:39.854Z,14.91
2023-01-02T00:31:44.530Z,14.92
2023-01-02T00:33:46.289Z,14.92
2023-01-02T00:35:48.066Z,14.95
2023-01-02T00:37:49.726Z,14.94
2023-01-02T00:39:51.354Z,14.93
2023-01-02T00:41:52.883Z,14.92
2023-01-02T00:43:54.505Z,14.95
2023-01-02T00:45:56.330Z,14.94
2023-01-02T00:47:57.782Z,14.94
2023-01-02T00:50:01.724Z,14.95
2023-01-02T00:52:05.445Z,14.96
2023-01-02T00:54:07.361Z,14.94
2023-01-02T00:56:09.077Z,14.94
2023-01-02T00:58:11.123Z,14.95
2023-01-02T01:00:21.784Z,14.94
2023-01-02T01:02:25.826Z,14.93
2023-01-02T01:04:27.553Z,14.90
2023-01-02T01:06:29.253Z,14.91
2023-01-02T01:08:31.085Z,14.95
2023-01-02T01:10:33.031Z,14.94
2023-01-02T01:12:34.619Z,14.98
2023-01-02T01:14:36.160Z,14.97
2023-01-02T01:16:38.280Z,14.98
2023-01-02T01:18:40.552Z,15.00
2023-01-02T01:20:42.281Z,15.03
2023-01-02T01:22:47.666Z,15.04
2023-01-02T01:24:49.203Z,15.05
2023-01-02T01:26:50.767Z,15.03
2023-01-02T01:28:53.629Z,15.03
2023-01-02T01:31:06.226Z,15.02
2023-01-02T01:33:07.783Z,15.03
2023-01-02T01:35:09.712Z,15.02
2023-01-02T01:37:12.227Z,15.00
2023-01-02T01:39:14.797Z,15.02
2023-01-02T01:41:21.297Z,15.00
2023-01-02T01:43:47.106Z,15.00
2023-01-02T01:45:48.853Z,15.00
2023-01-02T01:47:55.215Z,15.01
2023-01-02T01:50:15.031Z,15.00
2023-01-02T01:52:24.272Z,15.03
2023-01-02T01:54:30.240Z,15.00
2023-01-02T01:56:36.487Z,14.98
2023-01-02T01:58:47.319Z,14.99
2023-01-02T02:00:49.448Z,14.99
2023-01-02T02:03:02.505Z,14.97
2023-01-02T02:05:06.026Z,14.99
2023-01-02T02:07:07.600Z,15.01
2023-01-02T02:09:56.067Z,15.01
2023-01-02T02:11:59.002Z,15.01
2023-01-02T02:14:09.962Z,15.00
2023-01-02T02:16:17.507Z,15.01
2023-01-02T02:18:34.496Z,15.01
2023-01-02T02:20:55.333Z,15.00
2023-01-02T02:23:10.868Z,14.98
2023-01-02T02:25:12.473Z,15.01
2023-01-02T02:27:29.269Z,15.03
2023-01-02T02:30:11.029Z,15.03
2023-01-02T02:32:26.763Z,15.04
2023-01-02T02:34:39.907Z,15.03
2023-01-02T02:37:00.367Z,15.01
2023-01-02T02:39:18.064Z,15.00
2023-01-02T02:41:38.311Z,14.99
2023-01-02T02:43:55.354Z,15.00
2023-01-02T02:46:49.437Z,15.00
2023-01-02T02:49:01.287Z,14.99
2023-01-02T02:51:18.682Z,15.00
2023-01-02T02:53:23.790Z,15.01
2023-01-02T02:55:35.141Z,15.03
2023-01-02T02:57:42.140Z,15.04
2023-01-02T02:59:43.832Z,15.05
2023-01-02T03:01:48.024Z,15.06
2023-01-02T03:03:49.705Z,15.12
2023-01-02T03:06:46.784Z,15.07
2023-01-02T03:09:05.451Z,15.08
2023-01-02T03:11:07.616Z,15.08
2023-01-02T03:13:21.788Z,15.08
2023-01-02T03:15:42.755Z,15.06
2023-01-02T03:18:26.484Z,15.05
2023-01-02T03:20:36.866Z,15.09
2023-01-02T03:22:43.725Z,15.10
2023-01-02T03:24:48.932Z,15.06
2023-01-02T03:26:58.687Z,15.09
2023-01-02T03:29:33.450Z,15.08
2023-01-02T03:31:47.395Z,15.11
2023-01-02T03:33:55.296Z,15.11
2023-01-02T03:36:01.943Z,15.13
2023-01-02T03:38:10.756Z,15.11
2023-01-02T03:40:24.698Z,15.11
2023-01-02T03:42:35.596Z,15.09
2023-01-02T03:44:52.206Z,15.13
2023-01-02T03:47:08.247Z,15.14
2023-01-02T03:49:29.798Z,15.14
2023-01-02T03:51:32.159Z,15.13
2023-01-02T03:53:38.468Z,15.16
2023-01-02T03:55:43.518Z,15.17
2023-01-02T03:58:03.456Z,15.12
2023-01-02T04:00:10.530Z,15.13
2023-01-02T04:02:33.103Z,15.13
2023-01-02T04:04:51.472Z,15.12
2023-01-02T04:07:01.754Z,15.12
2023-01-02T04:09:07.073Z,15.12
2023-01-02T04:11:16.256Z,15.12
2023-01-02T04:13:26.512Z,15.13
2023-01-02T04:15:33.375Z,15.14
2023-01-02T04:17:52.756Z,15.13
2023-01-02T04:20:03.227Z,15.11
2023-01-02T04:22:15.352Z,15.12
2023-01-02T04:24:25.227Z,15.09
2023-01-02T04:26:40.474Z,15.07
2023-01-02T04:28:45.086Z,15.08
2023-01-02T04:31:04.242Z,15.05
2023-01-02T04:33:09.070Z,15.06
2023-01-02T04:35:22.533Z,15.04
2023-01-02T04:37:39.610Z,15.05
2023-01-02T04:39:41.194Z,15.04
2023-01-02T04:41:43.181Z,15.03
2023-01-02T04:43:48.888Z,15.01
2023-01-02T04:45:54.326Z,15.01
2023-01-02T04:47:56.633Z,14.99
2023-01-02T04:49:58.322Z,14.99
2023-01-02T04:52:00.056Z,14.98
2023-01-02T04:54:01.623Z,14.99
2023-01-02T04:56:07.472Z,14.98
2023-01-02T04:58:09.293Z,14.98
2023-01-02T05:00:11.376Z,14.96
2023-01-02T05:02:15.650Z,14.95
2023-01-02T05:04:17.273Z,14.98
2023-01-02T05:06:19.018Z,14.97
2023-01-02T05:08:23.769Z,14.97
2023-01-02T05:10:25.565Z,14.96
2023-01-02T05:12:27.340Z,14.95
2023-01-02T05:14:31.077Z,14.97
2023-01-02T05:16:32.622Z,14.96
2023-01-02T05:18:34.322Z,14.95
2023-01-02T05:20:39.016Z,14.96
2023-01-02T05:23:01.171Z,14.96
2023-01-02T05:25:02.883Z,14.94
2023-01-02T05:27:04.451Z,14.94
2023-01-02T05:29:06.336Z,14.95
2023-01-02T05:31:08.253Z,14.95
2023-01-02T05:33:10.024Z,14.94
2023-01-02T05:35:11.621Z,14.95
2023-01-02T05:37:13.384Z,14.96
2023-01-02T05:39:14.870Z,14.94
2023-01-02T05:41:16.893Z,14.95
2023-01-02T05:43:21.154Z,14.94
2023-01-02T05:45:22.640Z,14.94
2023-01-02T05:47:32.856Z,14.93
2023-01-02T05:49:34.478Z,14.91
2023-01-02T05:51:36.815Z,14.90
2023-01-02T05:53:40.950Z,14.91
2023-01-02T05:55:44.272Z,14.91
2023-01-02T05:57:49.992Z,14.89
2023-01-02T05:59:51.640Z,14.86
2023-01-02T06:01:53.406Z,14.88
2023-01-02T06:03:57.583Z,14.87
2023-01-02T06:06:07.292Z,14.85
2023-01-02T06:08:09.040Z,14.87
2023-01-02T06:10:10.670Z,14.87
2023-01-02T06:12:12.334Z,14.88
2023-01-02T06:14:17.948Z,14.87
2023-01-02T06:16:19.703Z,14.84
2023-01-02T06:18:21.658Z,14.84
2023-01-02T06:20:23.450Z,14.81
2023-01-02T06:22:25.191Z,14.82
2023-01-02T06:24:27.834Z,14.81
2023-01-02T06:26:35.216Z,14.82
2023-01-02T06:28:42.836Z,14.80
2023-01-02T06:30:50.481Z,14.79
2023-01-02T06:32:59.873Z,14.79
2023-01-02T06:35:01.776Z,14.78
2023-01-02T06:37:09.658Z,14.79
2023-01-02T06:39:11.982Z,14.79
2023-01-02T06:41:14.718Z,14.79
2023-01-02T06:43:18.423Z,14.78
2023-01-02T06:45:20.009Z,14.79
2023-01-02T06:47:24.535Z,14.79
2023-01-02T06:49:26.305Z,14.80
2023-01-02T06:51:28.049Z,14.79
2023-01-02T06:53:29.767Z,14.77
2023-01-02T06:55:31.645Z,14.77
2023-01-02T06:57:35.904Z,14.79
2023-01-02T06:59:37.667Z,14.80
2023-01-02T07:01:42.258Z,14.77
2023-01-02T07:03:44.977Z,14.78
2023-01-02T07:05:48.600Z,14.74
2023-01-02T07:07:53.892Z,14.73
2023-01-02T07:09:57.247Z,14.76
2023-01-02T07:11:58.978Z,14.76
2023-01-02T07:14:00.589Z,14.76
2023-01-02T07:16:06.723Z,14.74
2023-01-02T07:18:09.631Z,14.74
2023-01-02T07:20:11.849Z,14.74
2023-01-02T07:22:13.349Z,14.75
2023-01-02T07:24:18.047Z,14.75
2023-01-02T07:26:19.563Z,14.74
2023-01-02T07:28:21.424Z,14.74
2023-01-02T07:30:23.342Z,14.75
2023-01-02T07:32:27.551Z,14.75
2023-01-02T07:34:29.499Z,14.74
2023-01-02T07:36:31.115Z,14.73
2023-01-02T07:38:35.999Z,14.75
2023-01-02T07:40:37.596Z,14.73
2023-01-02T07:42:39.063Z,14.70
2023-01-02T07:44:40.704Z,14.71
2023-01-02T07:46:42.307Z,14.70
2023-01-02T07:48:44.530Z,14.71
2023-01-02T07:50:46.792Z,14.71
2023-01-02T07:52:48.289Z,14.70
2023-01-02T07:54:49.928Z,14.70
2023-01-02T07:56:53.828Z,14.75
2023-01-02T07:58:55.605Z,14.73
2023-01-02T08:01:04.887Z,14.71
2023-01-02T08:03:07.274Z,14.71
2023-01-02T08:05:09.861Z,14.72
2023-01-02T08:07:11.837Z,14.71
2023-01-02T08:09:13.468Z,14.69
2023-01-02T08:11:17.686Z,14.71
2023-01-02T08:13:26.861Z,14.72
2023-01-02T08:15:28.410Z,14.72
2023-01-02T08:17:34.073Z,14.72
2023-01-02T08:19:35.731Z,14.72
2023-01-02T08:21:37.894Z,14.73
2023-01-02T08:23:39.834Z,14.73
2023-01-02T08:25:41.415Z,14.73
2023-01-02T08:27:43.791Z,14.73
2023-01-02T08:29:48.159Z,14.74
2023-01-02T08:31:49.837Z,14.75
2023-01-02T08:33:53.357Z,14.73
2023-01-02T08:35:58.517Z,14.74
2023-01-02T08:38:02.917Z,14.74
2023-01-02T08:40:05.274Z,14.76
2023-01-02T08:42:09.596Z,14.75
2023-01-02T08:44:11.181Z,14.75
2023-01-02T08:46:15.681Z,14.76
2023-01-02T08:48:25.393Z,14.76
2023-01-02T08:50:27.179Z,14.77
2023-01-02T08:52:28.862Z,14.80
2023-01-02T08:54:30.411Z,14.77
2023-01-02T08:56:37.156Z,14.76
2023-01-02T08:58:38.725Z,14.79
2023-01-02T09:00:40.479Z,14.81
2023-01-02T09:02:44.482Z,14.80
2023-01-02T09:04:48.220Z,14.81
2023-01-02T09:06:49.867Z,14.82
2023-01-02T09:08:53.512Z,14.82
2023-01-02T09:10:55.115Z,14.86
2023-01-02T09:12:56.819Z,14.86
2023-01-02T09:15:01.439Z,14.86
2023-01-02T09:17:03.276Z,14.89
2023-01-02T09:19:05.087Z,14.88
2023-01-02T09:21:07.361Z,14.91
2023-01-02T09:23:09.394Z,14.91
2023-01-02T09:25:10.947Z,14.91
2023-01-02T09:27:12.610Z,14.91
2023-01-02T09:29:15.480Z,14.94
2023-01-02T09:31:19.669Z,14.95
2023-01-02T09:33:21.824Z,14.98
2023-01-02T09:35:23.488Z,15.01
2023-01-02T09:37:25.156Z,15.03
2023-01-02T09:39:32.202Z,15.03
2023-01-02T09:41:55.788Z,15.04
2023-01-02T09:44:25.240Z,15.06
2023-01-02T09:46:35.461Z,15.08
2023-01-02T09:48:37.300Z,15.13
2023-01-02T09:50:39.079Z,15.15
2023-01-02T09:52:46.687Z,15.15
2023-01-02T09:54:48.344Z,15.22
2023-01-02T09:57:17.435Z,15.21
2023-01-02T09:59:50.112Z,15.21
2023-01-02T10:02:01.480Z,15.25
2023-01-02T10:04:24.792Z,15.28
2023-01-02T10:06:46.442Z,15.31
2023-01-02T10:09:05.156Z,15.35
2023-01-02T10:11:37.978Z,15.38
2023-01-02T10:16:26.944Z,15.47
2023-01-02T10:18:42.007Z,15.48
2023-01-02T10:20:56.500Z,15.54
2023-01-02T10:23:08.227Z,15.58
2023-01-02T10:25:22.207Z,15.58
2023-01-02T10:27:34.141Z,15.64
2023-01-02T10:29:43.167Z,15.67
2023-01-02T10:31:52.453Z,15.70
2023-01-02T10:33:58.485Z,15.73
2023-01-02T10:36:01.997Z,15.76
2023-01-02T10:38:04.086Z,15.82
2023-01-02T10:40:05.891Z,15.86
2023-01-02T10:42:14.038Z,15.94
2023-01-02T10:44:37.448Z,15.92
2023-01-02T10:46:41.725Z,15.96
2023-01-02T10:48:48.492Z,16.05
2023-01-02T10:50:57.112Z,16.10
2023-01-02T10:53:19.125Z,16.10
2023-01-02T10:55:42.524Z,16.12
2023-01-02T10:57:46.911Z,16.17
2023-01-02T10:59:55.239Z,16.25
2023-01-02T11:01:58.764Z,16.31
2023-01-02T11:04:01.249Z,16.31
2023-01-02T11:06:23.525Z,16.35
2023-01-02T11:08:37.026Z,16.32
2023-01-02T11:10:38.746Z,16.33
2023-01-02T11:12:47.745Z,16.34
2023-01-02T11:14:50.459Z,16.40
2023-01-02T11:16:55.527Z,16.44
2023-01-02T11:18:59.791Z,16.45
2023-01-02T11:21:04.684Z,16.55
2023-01-02T11:23:06.698Z,16.57
2023-01-02T11:25:29.423Z,16.59
2023-01-02T11:27:36.856Z,16.64
2023-01-02T11:29:41.590Z,16.66
2023-01-02T11:31:57.157Z,16.68
2023-01-02T11:34:17.969Z,16.75
2023-01-02T11:36:19.982Z,16.75
2023-01-02T11:38:29.501Z,16.80
2023-01-02T11:40:35.739Z,16.78
2023-01-02T11:43:06.654Z,16.81
2023-01-02T11:45:11.156Z,16.86
2023-01-02T11:47:14.868Z,16.85
2023-01-02T11:49:23.932Z,16.88
2023-01-02T11:51:29.377Z,16.91
2023-01-02T11:53:40.385Z,16.98
2023-01-02T11:55:59.532Z,17.01
2023-01-02T11:58:45.699Z,17.04
2023-01-02T12:00:51.253Z,17.12
2023-01-02T12:02:54.117Z,17.20
2023-01-02T12:04:59.092Z,17.28
2023-01-02T12:07:37.046Z,17.33
2023-01-02T12:10:04.747Z,17.39
2023-01-02T12:12:32.698Z,17.47
2023-01-02T12:14:54.186Z,17.58
2023-01-02T12:17:33.988Z,17.64
2023-01-02T12:20:06.805Z,17.71
2023-01-02T12:22:52.659Z,17.78
2023-01-02T12:25:28.394Z,17.87
2023-01-02T12:27:58.375Z,17.94
2023-01-02T12:30:24.653Z,18.03
2023-01-02T12:32:57.369Z,18.09
2023-01-02T12:35:23.833Z,18.14
2023-01-02T12:37:58.517Z,18.19
2023-01-02T12:40:16.900Z,18.22
2023-01-02T12:43:00.235Z,18.26
2023-01-02T12:45:02.903Z,18.30
2023-01-02T12:47:28.375Z,18.33
2023-01-02T12:49:49.483Z,18.36
2023-01-02T12:52:06.216Z,18.39
2023-01-02T12:54:26.691Z,18.45
2023-01-02T12:56:38.870Z,18.47
2023-01-02T12:59:02.807Z,18.49
2023-01-02T13:01:14.649Z,18.52
2023-01-02T13:03:27.726Z,18.55
2023-01-02T13:05:39.933Z,18.56
2023-01-02T13:08:05.187Z,18.57
2023-01-02T13:10:12.574Z,18.59
2023-01-02T13:12:25.071Z,18.62
2023-01-02T13:14:34.972Z,18.65
2023-01-02T13:16:44.215Z,18.67
2023-01-02T13:19:16.491Z,18.67
2023-01-02T13:21:26.813Z,18.67
2023-01-02T13:23:45.463Z,18.68
2023-01-02T13:26:09.533Z,18.69
2023-01-02T13:28:13.249Z,18.70
2023-01-02T13:30:33.398Z,18.70
2023-01-02T13:32:40.675Z,18.70
2023-01-02T13:34:52.761Z,18.69
2023-01-02T13:37:01.215Z,18.72
2023-01-02T13:39:14.906Z,18.73
2023-01-02T13:41:18.740Z,18.73
2023-01-02T13:43:32.294Z,18.73
2023-01-02T13:45:42.903Z,18.73
2023-01-02T13:47:50.973Z,18.74
2023-01-02T13:50:01.981Z,18.72
2023-01-02T13:52:04.233Z,18.71
2023-01-02T13:54:23.584Z,18.70
2023-01-02T13:56:29.673Z,18.73
2023-01-02T13:58:58.970Z,18.67
2023-01-02T14:01:21.056Z,18.64
2023-01-02T14:03:23.059Z,18.65
2023-01-02T14:05:57.745Z,18.62
2023-01-02T14:08:26.949Z,18.60
2023-01-02T14:10:34.870Z,18.59
2023-01-02T14:12:53.200Z,18.55
2023-01-02T14:14:58.020Z,18.55
2023-01-02T14:17:20.816Z,18.53
2023-01-02T14:19:25.409Z,18.52
2023-01-02T14:21:44.806Z,18.50
2023-01-02T14:24:17.582Z,18.47
2023-01-02T14:26:33.367Z,18.44
2023-01-02T14:28:39.035Z,18.42
2023-01-02T14:30:43.579Z,18.40
2023-01-02T14:32:46.918Z,18.37
2023-01-02T14:34:53.901Z,18.35
2023-01-02T14:36:57.675Z,18.33
2023-01-02T14:38:59.388Z,18.31
2023-01-02T14:41:19.747Z,18.30
2023-01-02T14:43:41.518Z,18.25
2023-01-02T14:45:49.599Z,18.25
2023-01-02T14:48:02.797Z,18.23
2023-01-02T14:50:11.779Z,18.21
2023-01-02T14:52:27.139Z,18.19
2023-01-02T14:55:24.218Z,18.15
2023-01-02T14:57:34.580Z,18.14
2023-01-02T14:59:42.626Z,18.13
2023-01-02T15:01:55.789Z,18.12
2023-01-02T15:04:05.879Z,18.10
2023-01-02T15:06:17.182Z,18.07
2023-01-02T15:08:25.784Z,18.06
2023-01-02T15:10:27.680Z,18.03
2023-01-02T15:12:50.457Z,18.03
2023-01-02T15:14:52.810Z,18.00
2023-01-02T15:17:00.689Z,17.99
2023-01-02T15:19:02.506Z,17.97
2023-01-02T15:21:15.288Z,17.95
2023-01-02T15:23:22.554Z,17.93
2023-01-02T15:25:31.408Z,17.91
2023-01-02T15:27:42.969Z,17.90
2023-01-02T15:29:50.094Z,17.88
2023-01-02T15:32:00.438Z,17.87
2023-01-02T15:34:02.107Z,17.86
2023-01-02T15:36:09.083Z,17.83
2023-01-02T15:38:22.285Z,17.81
2023-01-02T15:40:27.582Z,17.81
2023-01-02T15:42:48.620Z,17.78
2023-01-02T15:45:08.963Z,17.76
2023-01-02T15:47:14.310Z,17.75
2023-01-02T15:49:18.552Z,17.73
2023-01-02T15:51:40.088Z,17.73
2023-01-02T15:53:44.804Z,17.71
2023-01-02T15:55:46.947Z,17.68
2023-01-02T15:57:56.180Z,17.68
2023-01-02T16:00:01.057Z,17.67
2023-01-02T16:02:33.328Z,17.66
2023-01-02T16:04:38.137Z,17.64
2023-01-02T16:06:42.969Z,17.62
2023-01-02T16:08:59.690Z,17.62
2023-01-02T16:11:01.760Z,17.60
2023-01-02T16:13:26.898Z,17.61
2023-01-02T16:15:31.917Z,17.60
2023-01-02T16:17:40.701Z,17.60
2023-01-02T16:19:58.990Z,17.58
2023-01-02T16:22:08.514Z,17.55
2023-01-02T16:24:11.292Z,17.53
2023-01-02T16:26:14.206Z,17.50
2023-01-02T16:28:35.807Z,17.48
2023-01-02T16:30:41.213Z,17.45
2023-01-02T16:32:48.344Z,17.44
2023-01-02T16:34:59.613Z,17.41
2023-01-02T16:37:10.316Z,17.38
2023-01-02T16:39:47.466Z,17.36
2023-01-02T16:42:16.915Z,17.34
2023-01-02T16:44:21.419Z,17.31
2023-01-02T16:46:23.353Z,17.29
2023-01-02T16:48:29.752Z,17.26
2023-01-02T16:50:31.430Z,17.26
2023-01-02T16:52:37.329Z,17.25
2023-01-02T16:54:38.938Z,17.22
2023-01-02T16:56:41.206Z,17.20
2023-01-02T16:58:45.515Z,17.16
2023-01-02T17:00:51.308Z,17.14
2023-01-02T17:02:53.436Z,17.13
2023-01-02T17:04:57.330Z,17.13
2023-01-02T17:07:02.045Z,17.10
2023-01-02T17:09:03.803Z,17.08
2023-01-02T17:11:05.657Z,17.07
2023-01-02T17:13:10.289Z,17.06
2023-01-02T17:15:14.324Z,17.04
2023-01-02T17:17:15.987Z,17.02
2023-01-02T17:19:18.831Z,17.01
2023-01-02T17:21:21.452Z,16.98
2023-01-02T17:23:23.204Z,16.96
2023-01-02T17:25:25.423Z,16.93
2023-01-02T17:27:27.409Z,16.93
2023-01-02T17:29:30.667Z,16.92
2023-01-02T17:31:35.508Z,16.91
2023-01-02T17:33:40.219Z,16.89
2023-01-02T17:35:41.974Z,16.87
2023-01-02T17:37:44.005Z,16.85
2023-01-02T17:39:46.614Z,16.83
2023-01-02T17:41:49.420Z,16.82
2023-01-02T17:44:02.408Z,16.80
2023-01-02T17:46:30.490Z,16.78
2023-01-02T17:48:30.392Z,16.78
2023-01-02T17:50:32.166Z,16.77
2023-01-02T17:52:33.900Z,16.77
2023-01-02T17:54:35.957Z,16.74
2023-01-02T17:56:40.827Z,16.74
2023-01-02T17:58:42.765Z,16.74
2023-01-02T18:00:44.526Z,16.72
2023-01-02T18:02:46.183Z,16.72
2023-01-02T18:04:54.604Z,16.71
2023-01-02T18:06:59.042Z,16.70
2023-01-02T18:09:00.597Z,16.69
2023-01-02T18:11:05.517Z,16.69
2023-01-02T18:13:07.267Z,16.70
2023-01-02T18:15:14.500Z,16.70
2023-01-02T18:17:24.340Z,16.68
2023-01-02T18:19:36.391Z,16.68
2023-01-02T18:21:38.352Z,16.68
2023-01-02T18:23:41.040Z,16.66
2023-01-02T18:25:42.704Z,16.66
2023-01-02T18:27:44.932Z,16.66
2023-01-02T18:30:07.083Z,16.65
2023-01-02T18:32:27.724Z,16.63
2023-01-02T18:34:52.429Z,16.64
2023-01-02T18:36:57.921Z,16.62
2023-01-02T18:39:11.022Z,16.60
2023-01-02T18:41:26.004Z,16.60
2023-01-02T18:43:32.105Z,16.60
2023-01-02T18:45:33.738Z,16.59
2023-01-02T18:47:37.478Z,16.57
2023-01-02T18:49:43.344Z,16.57
2023-01-02T18:51:45.921Z,16.55
2023-01-02T18:53:57.025Z,16.54
2023-01-02T18:56:07.229Z,16.54
2023-01-02T18:58:25.065Z,16.52
2023-01-02T19:00:29.836Z,16.51
2023-01-02T19:02:53.580Z,16.48
2023-01-02T19:04:58.267Z,16.47
2023-01-02T19:07:15.882Z,16.46
2023-01-02T19:09:33.542Z,16.43
2023-01-02T19:11:53.827Z,16.43
2023-01-02T19:13:58.904Z,16.44
2023-01-02T19:16:01.686Z,16.43
2023-01-02T19:18:18.670Z,16.41
2023-01-02T19:20:22.563Z,16.41
2023-01-02T19:22:29.580Z,16.39
2023-01-02T19:24:36.620Z,16.37
2023-01-02T19:26:44.382Z,16.38
2023-01-02T19:28:58.259Z,16.36
2023-01-02T19:30:59.973Z,16.36
2023-01-02T19:33:11.653Z,16.33
2023-01-02T19:35:25.299Z,16.32
2023-01-02T19:37:41.083Z,16.29
2023-01-02T19:39:42.815Z,16.27
2023-01-02T19:42:02.753Z,16.26
2023-01-02T19:44:04.514Z,16.26
2023-01-02T19:46:06.509Z,16.26
2023-01-02T19:48:09.318Z,16.25
2023-01-02T19:50:19.394Z,16.25
2023-01-02T19:52:22.181Z,16.24
2023-01-02T19:54:23.721Z,16.23
2023-01-02T19:56:25.239Z,16.21
2023-01-02T19:58:26.757Z,16.18
2023-01-02T20:00:28.393Z,16.18
2023-01-02T20:02:30.180Z,16.18
2023-01-02T20:04:31.867Z,16.17
2023-01-02T20:06:34.261Z,16.15
2023-01-02T20:08:36.971Z,16.13
2023-01-02T20:10:38.600Z,16.11
2023-01-02T20:12:41.308Z,16.08
2023-01-02T20:14:43.620Z,16.06
2023-01-02T20:16:45.369Z,16.03
2023-01-02T20:18:52.349Z,16.02
2023-01-02T20:20:54.920Z,15.98
2023-01-02T20:22:56.766Z,15.94
2023-01-02T20:24:58.826Z,15.91
2023-01-02T20:27:02.048Z,15.87
2023-01-02T20:29:05.662Z,15.84
2023-01-02T20:31:07.741Z,15.81
2023-01-02T20:33:11.764Z,15.81
2023-01-02T20:35:13.962Z,15.77
2023-01-02T20:37:17.346Z,15.75
2023-01-02T20:39:19.301Z,15.72
2023-01-02T20:41:21.056Z,15.68
2023-01-02T20:43:22.953Z,15.66
2023-01-02T20:45:27.428Z,15.62
2023-01-02T20:47:29.132Z,15.59
2023-01-02T20:49:31.345Z,15.54
2023-01-02T20:51:34.623Z,15.52
2023-01-02T20:53:36.415Z,15.49
2023-01-02T20:55:44.348Z,15.44
2023-01-02T20:57:49.968Z,15.41
2023-01-02T20:59:53.446Z,15.38
2023-01-02T21:01:55.275Z,15.34
2023-01-02T21:03:58.651Z,15.31
2023-01-02T21:06:02.469Z,15.26
2023-01-02T21:08:04.538Z,15.23
2023-01-02T21:10:06.984Z,15.20
2023-01-02T21:12:28.757Z,15.16
2023-01-02T21:14:37.159Z,15.11
2023-01-02T21:16:39.226Z,15.08
2023-01-02T21:18:44.144Z,15.04
2023-01-02T21:20:48.873Z,15.02
2023-01-02T21:22:53.281Z,14.98
2023-01-02T21:24:58.182Z,14.96
2023-01-02T21:26:59.844Z,14.93
2023-01-02T21:29:03.007Z,14.90
2023-01-02T21:31:05.995Z,14.88
2023-01-02T21:33:08.290Z,14.84
2023-01-02T21:35:10.141Z,14.83
2023-01-02T21:37:12.944Z,14.81
2023-01-02T21:39:14.604Z,14.79
2023-01-02T21:41:35.182Z,14.76
2023-01-02T21:43:36.789Z,14.74
2023-01-02T21:45:38.894Z,14.72
2023-01-02T21:47:43.286Z,14.69
2023-01-02T21:49:45.335Z,14.65
2023-01-02T21:51:47.206Z,14.63
2023-01-02T21:53:48.756Z,14.62
2023-01-02T21:55:53.055Z,14.59
2023-01-02T22:00:19.717Z,14.53
2023-01-02T22:02:29.022Z,14.52
2023-01-02T22:04:35.875Z,14.48
2023-01-02T22:06:50.369Z,14.46
2023-01-02T22:09:01.341Z,14.45
2023-01-02T22:11:23.381Z,14.44
2023-01-02T22:13:24.981Z,14.41
2023-01-02T22:15:26.645Z,14.39
2023-01-02T22:17:28.212Z,14.38
2023-01-02T22:19:30.233Z,14.37
2023-01-02T22:21:32.951Z,14.35
2023-01-02T22:23:34.432Z,14.33
2023-01-02T22:25:37.835Z,14.30
2023-01-02T22:27:39.860Z,14.30
2023-01-02T22:32:11.549Z,14.26
2023-01-02T22:34:13.775Z,14.26
2023-01-02T22:36:15.449Z,14.24
2023-01-02T22:38:17.048Z,14.24
2023-01-02T22:40:18.639Z,14.22
2023-01-02T22:43:07.699Z,14.22
2023-01-02T22:45:21.074Z,14.18
2023-01-02T22:47:35.312Z,14.16
2023-01-02T22:49:39.649Z,14.16
2023-01-02T22:52:05.866Z,14.16
2023-01-02T22:54:04.093Z,14.12
2023-01-02T22:56:18.966Z,14.10
2023-01-02T22:58:22.231Z,14.08
2023-01-02T23:00:24.068Z,14.07
2023-01-02T23:02:25.888Z,14.04
2023-01-02T23:04:33.771Z,14.03
2023-01-02T23:06:46.507Z,14.00
2023-01-02T23:08:57.262Z,13.99
2023-01-02T23:11:02.345Z,13.97
2023-01-02T23:13:07.146Z,13.96
2023-01-02T23:15:15.788Z,13.96
2023-01-02T23:17:36.100Z,13.93
2023-01-02T23:19:40.354Z,13.92
2023-01-02T23:21:46.585Z,13.91
2023-01-02T23:23:49.635Z,13.89
2023-01-02T23:25:51.145Z,13.88
2023-01-02T23:27:52.782Z,13.85
2023-01-02T23:29:54.835Z,13.84
2023-01-02T23:31:57.139Z,13.82
2023-01-02T23:33:59.448Z,13.83
2023-01-02T23:36:01.135Z,13.81
2023-01-02T23:38:11.967Z,13.78
2023-01-02T23:40:13.638Z,13.78
2023-01-02T23:42:18.294Z,13.76
2023-01-02T23:44:20.631Z,13.73
2023-01-02T23:46:22.492Z,13.72
2023-01-02T23:48:24.008Z,13.73
2023-01-02T23:50:25.613Z,13.72
2023-01-02T23:52:27.333Z,13.71
2023-01-02T23:54:29.084Z,13.71
2023-01-02T23:56:33.795Z,13.69
2023-01-02T23:58:36.247Z,13.68
